Terminal Aerodrome Forecast
Issued by NWS

Home | Current Version | Previous Version | Text Only | Print | Product List | Glossary On
Versions: 1 2 3 4 5 6 7 8 9 10 11 12 13 14 15 16 17 18 19 20 21
000
FTUS45 KGJT 211737
TAFMTJ
TAF
KMTJ 211737Z 2118/2218 VRB03KT P6SM FEW100 BKN250
     FM220100 24004KT P6SM SCT045 BKN050
     FM220200 15004KT 3SM BR SCT035 BKN050
     FM220400 VRB03KT 2SM BR VCSH BKN020 BKN030
     FM221200 VRB03KT 4SM BR BKN020 BKN045
     FM221700 31006KT P6SM BKN045 BKN050=

USA.gov is the U.S. government's official web portal to all federal, state and local government web resources and services.